Time;durP1;ratioP1;P1;durP2;ratioP2;P2;SDS_P1;SDS_P2;PMS_P1;PMS_P2;Temp;Humidity;BMP_temperature;BMP_pressure;BME280_temperature;BME280_humidity;BME280_pressure;Samples;Min_cycle;Max_cycle;Signal;HPM_P1;HPM_P2
2022/06/25 00:01:19;;;;;;;6.30;4.10;;;;;;;17.46;97.64;100234.64;108006;1279;75391;-88
2022/06/25 00:03:48;;;;;;;5.40;4.10;;;;;;;17.43;98.04;100244.84;107755;1279;70789;-88
2022/06/25 00:06:22;;;;;;;6.40;4.00;;;;;;;17.39;98.24;100247.91;107845;1279;72660;-88
2022/06/25 00:09:03;;;;;;;7.90;4.70;;;;;;;17.34;98.68;100246.23;108007;1279;62214;-88
2022/06/25 00:14:44;;;;;;;5.90;5.10;;;;;;;17.24;98.97;100243.52;108016;1279;73319;-88
2022/06/25 00:19:48;;;;;;;10.00;6.20;;;;;;;17.16;99.33;100252.16;107706;1281;72971;-88
2022/06/25 00:22:17;;;;;;;7.30;5.30;;;;;;;17.12;99.61;100263.39;107523;1281;61980;-88
2022/06/25 00:24:51;;;;;;;7.60;4.90;;;;;;;17.09;99.95;100263.79;107745;1281;63042;-88
2022/06/25 00:27:24;;;;;;;6.60;5.90;;;;;;;17.06;100.00;100263.02;107508;1281;75313;-88
2022/06/25 00:29:55;;;;;;;7.90;6.20;;;;;;;17.04;100.00;100261.56;107517;1281;72135;-88
2022/06/25 00:32:23;;;;;;;6.50;5.70;;;;;;;17.03;100.00;100266.61;107657;1281;72848;-88
2022/06/25 00:35:05;;;;;;;7.80;6.40;;;;;;;17.01;100.00;100269.64;107805;1280;63981;-88
2022/06/25 00:37:35;;;;;;;7.30;5.80;;;;;;;16.99;100.00;100274.66;107664;1281;61347;-88
2022/06/25 00:40:11;;;;;;;9.20;6.30;;;;;;;16.95;100.00;100272.38;107721;1282;73897;-88
2022/06/25 00:42:54;;;;;;;6.60;5.90;;;;;;;16.95;100.00;100277.77;107824;1281;70707;-89
2022/06/25 00:45:31;;;;;;;8.10;6.30;;;;;;;16.93;100.00;100280.89;107281;1282;73620;-89
2022/06/25 00:48:01;;;;;;;8.90;6.50;;;;;;;16.91;100.00;100278.64;107460;1284;62842;-88
2022/06/25 00:50:29;;;;;;;9.20;6.30;;;;;;;16.89;100.00;100277.14;107641;1282;60723;-89
2022/06/25 00:52:58;;;;;;;9.10;6.20;;;;;;;16.88;100.00;100280.41;107758;1281;77532;-88
2022/06/25 00:55:30;;;;;;;10.00;5.50;;;;;;;16.85;100.00;100280.95;107447;1284;72622;-88
2022/06/25 00:58:01;;;;;;;9.90;6.80;;;;;;;16.83;100.00;100280.14;107708;1281;72891;-88
2022/06/25 01:00:33;;;;;;;9.10;6.40;;;;;;;16.83;100.00;100278.67;107395;1282;61593;-88
2022/06/25 01:03:08;;;;;;;8.70;6.90;;;;;;;16.82;100.00;100279.67;107515;1281;60537;-88
2022/06/25 01:05:36;;;;;;;8.90;6.40;;;;;;;16.81;100.00;100283.23;107468;1281;74228;-89
2022/06/25 01:08:08;;;;;;;9.60;7.70;;;;;;;16.81;100.00;100283.67;107573;1281;72442;-88
2022/06/25 01:19:11;;;;;;;9.80;7.30;;;;;;;16.77;100.00;100283.27;107766;1283;76726;-88
2022/06/25 01:21:42;;;;;;;8.70;6.50;;;;;;;16.75;100.00;100284.77;107417;1282;71273;-89
2022/06/25 01:24:34;;;;;;;10.20;6.90;;;;;;;16.73;100.00;100284.42;107407;1282;72301;-89
2022/06/25 01:27:17;;;;;;;10.40;7.60;;;;;;;16.68;100.00;100288.23;107628;1282;62822;-89
2022/06/25 01:29:56;;;;;;;8.10;6.60;;;;;;;16.64;100.00;100292.27;107641;1282;59587;-88
2022/06/25 01:32:30;;;;;;;7.50;6.70;;;;;;;16.62;100.00;100287.52;107472;1282;75702;-88
2022/06/25 01:35:04;;;;;;;8.40;5.50;;;;;;;16.60;100.00;100289.27;107774;1281;71228;-89
2022/06/25 01:37:42;;;;;;;10.60;7.50;;;;;;;16.57;100.00;100287.33;107791;1281;74418;-89
2022/06/25 01:40:16;;;;;;;14.70;9.50;;;;;;;16.54;100.00;100284.60;107624;1281;62025;-88
2022/06/25 01:42:59;;;;;;;11.60;8.00;;;;;;;16.53;100.00;100286.34;107713;1281;60657;-88
2022/06/25 01:45:32;;;;;;;9.90;7.30;;;;;;;16.51;100.00;100286.16;107676;1281;74637;-89
2022/06/25 01:48:02;;;;;;;11.10;6.20;;;;;;;16.49;100.00;100286.17;107484;1281;71608;-89
2022/06/25 01:50:36;;;;;;;11.20;7.10;;;;;;;16.47;100.00;100295.32;107690;1281;73008;-88
2022/06/25 01:53:04;;;;;;;8.90;6.60;;;;;;;16.45;100.00;100296.13;107458;1281;63950;-88
2022/06/25 01:55:34;;;;;;;9.30;8.20;;;;;;;16.42;100.00;100296.36;107509;1281;61387;-88
2022/06/25 01:58:08;;;;;;;12.60;7.70;;;;;;;16.39;100.00;100296.27;107551;1281;73606;-88
2022/06/25 02:00:35;;;;;;;12.20;8.00;;;;;;;16.35;100.00;100295.73;107697;1281;72056;-88
2022/06/25 02:03:06;;;;;;;11.20;7.40;;;;;;;16.33;100.00;100302.67;107758;1281;73148;-89
2022/06/25 02:06:02;;;;;;;12.20;9.10;;;;;;;16.33;100.00;100300.91;107573;1281;62864;-88
2022/06/25 02:08:50;;;;;;;11.70;8.10;;;;;;;16.34;100.00;100302.21;107342;1281;60422;-88
2022/06/25 02:11:30;;;;;;;11.70;8.90;;;;;;;16.35;100.00;100307.19;107796;1281;73720;-89
2022/06/25 02:14:14;;;;;;;10.60;7.60;;;;;;;16.37;100.00;100315.80;107391;1284;71437;-88
2022/06/25 02:16:55;;;;;;;12.40;9.50;;;;;;;16.41;100.00;100316.55;107405;1284;74021;-89
2022/06/25 02:19:32;;;;;;;9.80;8.70;;;;;;;16.44;100.00;100313.40;107266;1284;62384;-88
2022/06/25 02:22:00;;;;;;;10.70;8.80;;;;;;;16.47;100.00;100307.31;107363;1284;62080;-88
2022/06/25 02:24:27;;;;;;;11.10;8.90;;;;;;;16.49;100.00;100307.27;107337;1284;75183;-88
2022/06/25 02:26:54;;;;;;;11.20;8.80;;;;;;;16.53;100.00;100310.00;107253;1283;71503;-88
2022/06/25 02:29:24;;;;;;;10.20;7.80;;;;;;;16.55;100.00;100309.80;107224;1284;71995;-88
2022/06/25 02:31:55;;;;;;;8.40;6.60;;;;;;;16.58;100.00;100314.77;107366;1284;63223;-88
2022/06/25 02:34:23;;;;;;;9.60;7.80;;;;;;;16.59;100.00;100319.98;107284;1284;60315;-88
2022/06/25 02:36:55;;;;;;;9.70;8.70;;;;;;;16.58;100.00;100323.86;107344;1284;74702;-88
2022/06/25 02:39:29;;;;;;;11.80;9.00;;;;;;;16.57;100.00;100323.99;107304;1284;74862;-88
2022/06/25 02:41:57;;;;;;;10.70;6.50;;;;;;;16.55;100.00;100323.40;107412;1284;72999;-88
2022/06/25 02:44:35;;;;;;;8.40;6.00;;;;;;;16.53;100.00;100324.98;107462;1281;62295;-89
2022/06/25 02:47:17;;;;;;;9.70;7.10;;;;;;;16.49;100.00;100326.49;107634;1281;60468;-89
2022/06/25 02:49:46;;;;;;;11.40;8.30;;;;;;;16.46;100.00;100325.45;107716;1275;75877;-88
2022/06/25 02:52:13;;;;;;;11.50;7.80;;;;;;;16.43;100.00;100323.41;107989;1282;70999;-89
2022/06/25 02:54:46;;;;;;;10.40;7.40;;;;;;;16.39;100.00;100322.88;107943;1281;72836;-89
2022/06/25 03:00:10;;;;;;;10.80;6.40;;;;;;;16.32;100.00;100326.05;107644;1282;61987;-88
2022/06/25 03:05:04;;;;;;;16.80;7.30;;;;;;;16.28;100.00;100331.23;107904;1277;59246;-88
2022/06/25 03:07:31;;;;;;;11.60;7.70;;;;;;;16.27;100.00;100332.38;107653;1280;60414;-89
2022/06/25 03:09:59;;;;;;;16.10;8.60;;;;;;;16.25;100.00;100331.90;107887;1279;62101;-88
2022/06/25 03:12:26;;;;;;;12.30;7.00;;;;;;;16.25;100.00;100335.90;107954;1279;60590;-88
2022/06/25 03:14:53;;;;;;;28.40;8.20;;;;;;;16.24;100.00;100334.75;107846;1279;75667;-88
2022/06/25 03:17:21;;;;;;;9.70;6.10;;;;;;;16.23;100.00;100328.63;108129;1279;72804;-88
2022/06/25 03:19:48;;;;;;;9.60;7.50;;;;;;;16.23;100.00;100330.44;108107;1279;73397;-88
2022/06/25 03:22:15;;;;;;;12.50;8.10;;;;;;;16.23;100.00;100327.64;107977;1280;62310;-88
2022/06/25 03:24:43;;;;;;;7.60;6.70;;;;;;;16.25;100.00;100332.41;107690;1280;62395;-88
2022/06/25 03:27:10;;;;;;;10.00;8.80;;;;;;;16.27;100.00;100329.38;108110;1279;76038;-88
2022/06/25 03:29:37;;;;;;;14.10;8.40;;;;;;;16.30;100.00;100331.29;107811;1280;71338;-88
2022/06/25 03:32:04;;;;;;;9.60;8.60;;;;;;;16.34;100.00;100333.59;107919;1281;72892;-88
2022/06/25 03:34:31;;;;;;;10.60;7.50;;;;;;;16.38;100.00;100334.69;107943;1279;62522;-88
2022/06/25 03:36:58;;;;;;;10.50;6.80;;;;;;;16.44;100.00;100331.75;108126;1279;59417;-88
2022/06/25 03:39:26;;;;;;;7.40;6.60;;;;;;;16.49;100.00;100331.33;107939;1279;75675;-88
2022/06/25 03:41:56;;;;;;;8.20;6.20;;;;;;;16.54;100.00;100333.88;108190;1279;72534;-88
2022/06/25 03:44:24;;;;;;;6.90;5.90;;;;;;;16.59;100.00;100336.69;108254;1279;74382;-89
2022/06/25 03:46:54;;;;;;;10.00;6.20;;;;;;;16.63;100.00;100342.13;108189;1279;62409;-88
2022/06/25 03:49:24;;;;;;;9.10;6.60;;;;;;;16.67;100.00;100346.25;108522;1279;60649;-88
2022/06/25 03:51:57;;;;;;;6.50;5.80;;;;;;;16.70;100.00;100354.95;108479;1279;74625;-88
2022/06/25 03:54:30;;;;;;;6.70;5.50;;;;;;;16.73;100.00;100352.05;108213;1279;71827;-88
2022/06/25 03:57:04;;;;;;;6.40;5.20;;;;;;;16.75;100.00;100353.13;108152;1280;72807;-87
2022/06/25 03:59:38;;;;;;;6.30;5.30;;;;;;;16.78;100.00;100355.28;107857;1280;62041;-88
2022/06/25 04:02:10;;;;;;;9.50;5.60;;;;;;;16.80;100.00;100359.60;108301;1279;60287;-88
2022/06/25 04:04:40;;;;;;;7.00;4.50;;;;;;;16.83;100.00;100358.20;108318;1280;76090;-88
2022/06/25 04:07:10;;;;;;;7.00;5.40;;;;;;;16.85;100.00;100353.65;108366;1279;70722;-88
2022/06/25 04:09:44;;;;;;;6.20;4.90;;;;;;;16.90;100.00;100356.27;108095;1280;72932;-88
2022/06/25 04:12:12;;;;;;;7.20;4.70;;;;;;;16.93;100.00;100358.01;108143;1280;61507;-88
2022/06/25 04:14:39;;;;;;;6.90;5.20;;;;;;;16.97;100.00;100360.42;108182;1280;60656;-88
2022/06/25 04:17:06;;;;;;;5.50;4.70;;;;;;;17.01;100.00;100365.41;108100;1281;76049;-88
2022/06/25 04:19:41;;;;;;;8.20;4.50;;;;;;;17.06;100.00;100371.49;108439;1281;71542;-86
2022/06/25 04:22:09;;;;;;;8.00;5.50;;;;;;;17.09;100.00;100375.17;108363;1280;72808;-86
2022/06/25 04:24:51;;;;;;;5.20;4.00;;;;;;;17.12;100.00;100375.66;108517;1279;63130;-88
2022/06/25 04:30:37;;;;;;;6.10;4.10;;;;;;;17.17;100.00;100386.41;107381;1280;73390;-88
2022/06/25 04:33:04;;;;;;;6.80;4.60;;;;;;;17.20;100.00;100388.97;108288;1280;71580;-87
2022/06/25 04:35:35;;;;;;;8.20;5.10;;;;;;;17.25;100.00;100391.37;108322;1279;73334;-87
2022/06/25 04:38:08;;;;;;;9.70;4.50;;;;;;;17.33;100.00;100394.90;108498;1279;62160;-88
2022/06/25 04:40:49;;;;;;;11.40;6.40;;;;;;;17.42;100.00;100392.05;108524;1279;60823;-88
2022/06/25 04:43:17;;;;;;;7.40;4.40;;;;;;;17.52;100.00;100392.40;108499;1279;74655;-88
2022/06/25 04:45:45;;;;;;;7.00;4.60;;;;;;;17.62;99.87;100400.86;108536;1279;71409;-88
2022/06/25 04:48:19;;;;;;;6.30;3.40;;;;;;;17.73;99.57;100404.20;108333;1280;72369;-88
2022/06/25 04:50:53;;;;;;;4.70;3.80;;;;;;;17.85;99.09;100405.92;108480;1279;60353;-88
2022/06/25 04:53:54;;;;;;;7.00;4.00;;;;;;;18.00;98.81;100406.52;108436;1279;60627;-86
2022/06/25 04:56:31;;;;;;;9.00;3.70;;;;;;;18.20;98.11;100413.11;108102;1272;73264;-88
2022/06/25 04:58:58;;;;;;;5.20;3.50;;;;;;;18.41;97.79;100412.05;108014;1281;73363;-88
2022/06/25 05:01:26;;;;;;;6.60;3.00;;;;;;;18.61;96.39;100417.17;107866;1280;72933;-88
2022/06/25 05:03:53;;;;;;;3.80;2.70;;;;;;;18.81;95.16;100420.55;108110;1280;60882;-85
2022/06/25 05:06:29;;;;;;;7.00;3.30;;;;;;;19.02;93.76;100420.77;108167;1279;59849;-87
2022/06/25 05:08:57;;;;;;;4.70;3.20;;;;;;;19.25;93.11;100423.15;107807;1281;74149;-89
2022/06/25 05:11:30;;;;;;;3.20;2.40;;;;;;;19.45;91.24;100424.67;107738;1281;71180;-87
2022/06/25 05:16:34;;;;;;;7.30;2.70;;;;;;;19.84;89.16;100420.59;107692;1272;59095;-86
2022/06/25 05:19:02;;;;;;;2.60;1.90;;;;;;;19.97;86.80;100421.58;107622;1281;62482;-87
2022/06/25 05:21:29;;;;;;;3.40;1.90;;;;;;;20.06;86.32;100423.61;107701;1281;74430;-87
2022/06/25 05:24:05;;;;;;;4.60;2.60;;;;;;;20.14;85.87;100423.48;107646;1281;71382;-87
2022/06/25 05:26:42;;;;;;;4.60;2.30;;;;;;;20.24;85.14;100432.30;107703;1281;74237;-88
2022/06/25 05:29:24;;;;;;;3.40;2.40;;;;;;;20.37;84.42;100437.98;107636;1281;61849;-87
2022/06/25 05:32:02;;;;;;;3.50;2.50;;;;;;;20.43;82.87;100438.30;107946;1280;59807;-88
2022/06/25 05:34:49;;;;;;;5.80;3.30;;;;;;;20.41;82.23;100443.48;107958;1281;73901;-88
2022/06/25 05:37:17;;;;;;;4.90;2.60;;;;;;;20.35;82.54;100444.16;107851;1280;72166;-88
2022/06/25 05:39:44;;;;;;;5.20;2.50;;;;;;;20.29;82.49;100443.78;107963;1281;74234;-88
2022/06/25 05:42:12;;;;;;;3.40;2.20;;;;;;;20.25;83.25;100449.50;107776;1281;61507;-88
2022/06/25 05:44:43;;;;;;;5.60;2.90;;;;;;;20.24;83.07;100453.48;107982;1281;60843;-88
2022/06/25 05:47:16;;;;;;;6.30;3.00;;;;;;;20.31;83.77;100451.91;107929;1281;77719;-88
2022/06/25 05:50:08;;;;;;;3.80;2.60;;;;;;;20.39;83.62;100452.09;107942;1280;72408;-88
2022/06/25 05:52:36;;;;;;;5.30;2.40;;;;;;;20.47;83.07;100451.08;108094;1280;73713;-90
2022/06/25 05:55:06;;;;;;;4.40;2.30;;;;;;;20.57;82.59;100454.43;108040;1279;62774;-87
2022/06/25 05:57:50;;;;;;;;;;;;;;;;;;;;;
2022/06/25 06:00:26;;;;;;;5.20;2.10;;;;;;;20.74;79.85;100450.16;108247;1280;75246;-87
2022/06/25 06:02:54;;;;;;;2.80;2.10;;;;;;;20.87;79.67;100455.94;108386;1279;71426;-89
2022/06/25 06:05:28;;;;;;;3.70;2.20;;;;;;;20.96;78.96;100456.60;108210;1281;73350;-89
2022/06/25 06:08:01;;;;;;;3.80;2.20;;;;;;;21.05;78.11;100463.35;108435;1279;62329;-90
2022/06/25 06:10:46;;;;;;;3.90;2.10;;;;;;;21.03;77.47;100462.62;108007;1270;188905;-82
2022/06/25 06:13:13;;;;;;;2.80;1.80;;;;;;;21.04;77.58;100469.56;108002;1277;75713;-83
2022/06/25 06:15:40;;;;;;;2.80;2.00;;;;;;;20.99;76.60;100470.48;107778;1277;72483;-82
2022/06/25 06:18:08;;;;;;;3.20;2.10;;;;;;;20.95;76.97;100473.79;108064;1277;74106;-82
2022/06/25 06:20:35;;;;;;;3.80;2.30;;;;;;;20.93;77.32;100477.20;107978;1277;62692;-83
2022/06/25 06:23:02;;;;;;;4.60;2.20;;;;;;;20.90;77.07;100477.44;107902;1278;61002;-82
2022/06/25 06:25:29;;;;;;;6.40;2.20;;;;;;;20.90;77.75;100477.11;107775;1280;76233;-83
2022/06/25 06:27:57;;;;;;;2.50;1.90;;;;;;;20.92;78.41;100482.27;107674;1281;71494;-83
2022/06/25 06:30:24;;;;;;;3.80;2.20;;;;;;;20.91;77.89;100482.52;107825;1277;74455;-83
2022/06/25 06:32:51;;;;;;;3.20;2.00;;;;;;;20.88;77.05;100479.67;107725;1277;63047;-82
2022/06/25 06:35:18;;;;;;;4.80;2.30;;;;;;;20.86;77.28;100479.59;107913;1278;61599;-83
2022/06/25 06:37:46;;;;;;;6.50;2.30;;;;;;;20.88;77.71;100486.52;107578;1281;76175;-83
2022/06/25 06:40:14;;;;;;;3.70;2.30;;;;;;;20.88;77.65;100483.61;107862;1277;71219;-83
2022/06/25 06:42:41;;;;;;;3.30;2.20;;;;;;;20.87;77.29;100482.92;107825;1279;73067;-83
2022/06/25 06:45:08;;;;;;;2.40;1.80;;;;;;;20.84;77.22;100481.67;107605;1277;62296;-83
2022/06/25 06:47:35;;;;;;;2.50;1.90;;;;;;;20.82;77.14;100482.07;107874;1278;60491;-83
2022/06/25 06:50:03;;;;;;;2.70;1.60;;;;;;;20.79;76.45;100485.80;107675;1278;74466;-83
2022/06/25 06:52:32;;;;;;;6.30;1.90;;;;;;;20.76;76.60;100490.73;107864;1278;73049;-83
2022/06/25 06:55:01;;;;;;;3.70;1.70;;;;;;;20.76;76.50;100490.63;107973;1277;74064;-83
2022/06/25 06:57:28;;;;;;;3.10;1.50;;;;;;;20.87;76.01;100490.88;107784;1279;63249;-83
2022/06/25 06:59:58;;;;;;;2.50;1.40;;;;;;;21.06;74.77;100492.27;107965;1279;61079;-83
2022/06/25 07:02:26;;;;;;;4.80;1.30;;;;;;;21.28;73.84;100492.39;107943;1279;76072;-82
2022/06/25 07:04:53;;;;;;;2.40;1.40;;;;;;;21.51;73.28;100491.50;107896;1280;71724;-83
2022/06/25 07:07:20;;;;;;;1.90;1.20;;;;;;;21.75;71.45;100486.69;107869;1279;73073;-83
2022/06/25 07:09:48;;;;;;;6.00;1.50;;;;;;;21.92;69.84;100493.17;107983;1280;63189;-83
2022/06/25 07:12:15;;;;;;;2.90;1.50;;;;;;;21.98;68.43;100491.83;107685;1279;60374;-83
2022/06/25 07:14:42;;;;;;;2.30;1.20;;;;;;;22.10;67.93;100493.45;107801;1280;77048;-83
2022/06/25 07:17:10;;;;;;;2.20;1.10;;;;;;;22.21;66.76;100488.75;107836;1280;71526;-83
2022/06/25 07:19:37;;;;;;;2.20;1.10;;;;;;;22.26;65.83;100490.38;107907;1280;72675;-83
2022/06/25 07:22:03;;;;;;;2.10;1.10;;;;;;;22.32;65.75;100491.50;107861;1280;61743;-83
2022/06/25 07:24:30;;;;;;;3.30;0.80;;;;;;;22.44;65.38;100490.84;107773;1280;60400;-83
2022/06/25 07:26:58;;;;;;;2.60;1.10;;;;;;;22.49;64.35;100494.23;107809;1280;75183;-83
2022/06/25 07:29:24;;;;;;;3.50;1.10;;;;;;;22.53;64.76;100498.10;107962;1280;73183;-84
2022/06/25 07:31:51;;;;;;;3.40;1.30;;;;;;;22.62;64.66;100499.51;107925;1279;72840;-84
2022/06/25 07:34:18;;;;;;;3.00;1.40;;;;;;;22.65;63.45;100498.44;107813;1280;62399;-81
2022/06/25 07:36:45;;;;;;;1.40;0.80;;;;;;;22.70;64.21;100496.96;107878;1279;60790;-81
2022/06/25 07:39:12;;;;;;;2.40;0.90;;;;;;;22.76;63.72;100496.90;108008;1280;75073;-81
2022/06/25 07:41:40;;;;;;;1.40;0.90;;;;;;;22.83;63.95;100493.33;107872;1280;72057;-80
2022/06/25 07:44:07;;;;;;;1.70;0.80;;;;;;;22.89;62.45;100498.27;107519;1280;73172;-81
2022/06/25 07:46:34;;;;;;;1.80;1.00;;;;;;;22.94;61.92;100500.95;107752;1280;60493;-81
2022/06/25 07:49:01;;;;;;;3.40;1.40;;;;;;;23.03;62.11;100499.73;107967;1280;60460;-81
2022/06/25 07:54:14;;;;;;;2.00;0.80;;;;;;;23.24;62.13;100500.80;107916;1279;71825;-81
2022/06/25 07:56:42;;;;;;;3.30;0.90;;;;;;;23.29;60.01;100506.15;107968;1279;73932;-81
2022/06/25 07:59:08;;;;;;;1.60;0.90;;;;;;;23.35;60.12;100499.70;108004;1280;61887;-81
2022/06/25 08:01:35;;;;;;;1.90;0.90;;;;;;;23.42;59.96;100505.65;107985;1279;61946;-81
2022/06/25 08:04:03;;;;;;;3.20;0.80;;;;;;;23.47;60.05;100502.20;107861;1280;75875;-81
2022/06/25 08:06:31;;;;;;;2.80;1.00;;;;;;;23.53;59.85;100504.77;107964;1280;71575;-81
2022/06/25 08:08:58;;;;;;;3.30;1.10;;;;;;;23.65;59.31;100506.80;107771;1280;73098;-81
2022/06/25 08:11:25;;;;;;;2.80;1.20;;;;;;;23.72;58.37;100507.80;107938;1278;60695;-81
2022/06/25 08:13:52;;;;;;;1.90;1.00;;;;;;;23.79;58.76;100507.58;107674;1280;59295;-81
2022/06/25 08:16:19;;;;;;;2.00;0.80;;;;;;;23.92;57.55;100516.87;107880;1280;76173;-82
2022/06/25 08:18:46;;;;;;;1.30;0.70;;;;;;;24.03;56.44;100512.60;107998;1279;73342;-81
2022/06/25 08:21:13;;;;;;;1.10;0.70;;;;;;;24.04;55.57;100512.77;107775;1280;72920;-81
2022/06/25 08:23:40;;;;;;;1.30;0.70;;;;;;;24.03;56.14;100515.52;107977;1279;60142;-81
2022/06/25 08:26:07;;;;;;;1.40;0.50;;;;;;;24.16;55.42;100521.77;107751;1280;60673;-81
2022/06/25 08:28:34;;;;;;;2.90;0.80;;;;;;;24.25;54.60;100519.17;108017;1278;75116;-81
2022/06/25 08:31:05;;;;;;;1.70;0.80;;;;;;;24.38;55.01;100521.02;108302;1278;71079;-81
2022/06/25 08:33:32;;;;;;;1.70;0.70;;;;;;;24.36;55.44;100521.77;108289;1278;72683;-81
2022/06/25 08:35:59;;;;;;;3.70;1.00;;;;;;;24.46;54.64;100526.06;108122;1280;60464;-82
2022/06/25 08:38:26;;;;;;;4.30;0.90;;;;;;;24.51;53.42;100525.92;107936;1280;60617;-81
2022/06/25 08:40:57;;;;;;;1.30;0.60;;;;;;;24.52;53.31;100525.81;108024;1278;74945;-81
2022/06/25 08:43:24;;;;;;;1.30;0.60;;;;;;;24.39;53.15;100525.63;107940;1279;72198;-81
2022/06/25 08:45:52;;;;;;;2.10;0.90;;;;;;;24.26;53.09;100524.05;107931;1278;72968;-81
2022/06/25 08:48:23;;;;;;;1.90;0.80;;;;;;;24.12;54.24;100527.30;107473;1278;665380;-82
2022/06/25 08:50:51;;;;;;;2.90;0.90;;;;;;;24.13;54.52;100526.98;107909;1278;60297;-81
2022/06/25 08:53:18;;;;;;;1.60;0.70;;;;;;;24.28;55.01;100526.55;108017;1278;76000;-81
2022/06/25 08:55:46;;;;;;;2.50;0.80;;;;;;;24.50;54.17;100527.11;107750;1280;71597;-81
2022/06/25 08:58:14;;;;;;;1.50;0.80;;;;;;;24.74;54.14;100520.59;107890;1278;72779;-82
2022/06/25 09:00:43;;;;;;;1.70;0.70;;;;;;;24.95;52.64;100517.77;107658;1279;60450;-82
2022/06/25 09:03:11;;;;;;;2.50;0.80;;;;;;;25.12;51.51;100518.38;107677;1278;60332;-82
2022/06/25 09:05:40;;;;;;;1.80;0.60;;;;;;;25.23;50.72;100516.25;107766;1280;75827;-82
2022/06/25 09:08:10;;;;;;;1.90;0.70;;;;;;;25.40;50.26;100516.40;108001;1277;73045;-82
2022/06/25 09:10:38;;;;;;;0.90;0.40;;;;;;;25.60;49.08;100515.11;107583;1280;74222;-82
2022/06/25 09:13:08;;;;;;;2.10;0.70;;;;;;;25.65;48.56;100513.89;107693;1280;60741;-81
2022/06/25 09:15:45;;;;;;;1.70;0.80;;;;;;;25.60;48.41;100514.20;108022;1278;59446;-82
2022/06/25 09:18:15;;;;;;;2.80;0.70;;;;;;;25.57;48.49;100514.73;107977;1278;76046;-81
2022/06/25 09:20:58;;;;;;;1.90;0.70;;;;;;;25.58;48.77;100512.23;107913;1280;71602;-82
2022/06/25 09:23:31;;;;;;;2.00;1.10;;;;;;;25.77;48.43;100511.71;107914;1279;73538;-81
2022/06/25 09:26:10;;;;;;;2.20;0.60;;;;;;;25.82;48.31;100512.86;107906;1278;61969;-81
2022/06/25 09:28:42;;;;;;;1.30;0.70;;;;;;;25.74;49.00;100515.84;107801;1280;61820;-81
2022/06/25 09:31:09;;;;;;;5.00;0.90;;;;;;;25.63;48.93;100519.76;107897;1280;76765;-82
2022/06/25 09:33:38;;;;;;;2.90;0.70;;;;;;;25.52;48.96;100512.81;107660;1280;72470;-81
2022/06/25 09:36:09;;;;;;;2.10;0.70;;;;;;;25.47;48.93;100509.20;107830;1280;73154;-81
2022/06/25 09:38:49;;;;;;;1.10;0.70;;;;;;;25.60;48.93;100513.41;107921;1280;60671;-82
2022/06/25 09:41:17;;;;;;;1.00;0.50;;;;;;;25.86;48.59;100514.48;107831;1279;60462;-82
2022/06/25 09:43:47;;;;;;;1.50;0.70;;;;;;;26.16;48.18;100511.85;108013;1279;75784;-82
2022/06/25 09:46:15;;;;;;;1.30;0.60;;;;;;;26.50;47.92;100506.63;107972;1280;71720;-82
2022/06/25 09:48:42;;;;;;;1.60;0.80;;;;;;;26.58;45.97;100506.83;107915;1279;72018;-82
2022/06/25 09:51:23;;;;;;;0.90;0.70;;;;;;;26.47;45.91;100510.29;107798;1280;61041;-82
2022/06/25 09:53:51;;;;;;;1.00;0.70;;;;;;;26.30;46.35;100511.67;107992;1278;60190;-82
2022/06/25 09:56:21;;;;;;;2.30;0.80;;;;;;;26.15;46.96;100509.88;107850;1280;75817;-82
2022/06/25 09:58:48;;;;;;;1.10;0.50;;;;;;;26.05;47.27;100511.42;107880;1280;72777;-82
2022/06/25 10:01:17;;;;;;;3.20;0.70;;;;;;;25.95;47.26;100514.45;107972;1278;72337;-82
2022/06/25 10:03:45;;;;;;;1.20;0.60;;;;;;;25.99;47.70;100509.08;107829;1280;60539;-82
2022/06/25 10:06:23;;;;;;;1.70;0.60;;;;;;;26.18;46.87;100505.25;107889;1279;61367;-82
2022/06/25 10:08:52;;;;;;;1.10;0.60;;;;;;;26.21;46.42;100503.75;107826;1279;75741;-82
2022/06/25 10:11:21;;;;;;;1.10;0.60;;;;;;;26.17;46.75;100505.96;107835;1280;70989;-82
2022/06/25 10:13:50;;;;;;;2.30;1.30;;;;;;;26.11;46.40;100505.69;107680;1280;72949;-82
2022/06/25 10:16:21;;;;;;;1.60;0.70;;;;;;;26.04;46.68;100499.55;107845;1279;60928;-82
2022/06/25 10:18:49;;;;;;;1.90;0.70;;;;;;;25.99;46.81;100503.16;107922;1280;61195;-82
2022/06/25 10:21:18;;;;;;;2.30;0.90;;;;;;;25.98;47.37;100506.16;107885;1280;74300;-82
2022/06/25 10:23:45;;;;;;;3.10;1.00;;;;;;;26.03;47.19;100505.15;108021;1277;70994;-82
2022/06/25 10:26:13;;;;;;;2.40;0.90;;;;;;;26.24;46.79;100502.32;107657;1280;72941;-82
2022/06/25 10:28:43;;;;;;;2.50;1.00;;;;;;;26.55;46.16;100498.32;107990;1280;61229;-82
2022/06/25 10:31:17;;;;;;;1.80;0.80;;;;;;;26.82;44.73;100496.69;107862;1279;61720;-82
2022/06/25 10:34:02;;;;;;;2.10;0.70;;;;;;;27.03;43.81;100492.55;107861;1277;75409;-82
2022/06/25 10:37:01;;;;;;;1.10;0.50;;;;;;;27.30;43.72;100486.13;107924;1279;71384;-82
2022/06/25 10:39:28;;;;;;;1.70;0.60;;;;;;;27.63;42.93;100483.84;107490;1280;72384;-82
2022/06/25 10:45:27;;;;;;;1.30;0.60;;;;;;;27.67;41.94;100489.01;108011;1278;61849;-82
2022/06/25 10:47:59;;;;;;;2.70;0.80;;;;;;;27.62;42.44;100487.84;108013;1278;75851;-83
2022/06/25 10:50:31;;;;;;;2.00;0.70;;;;;;;27.62;42.01;100486.63;107795;1279;72337;-83
2022/06/25 10:53:02;;;;;;;1.10;0.70;;;;;;;27.48;42.42;100489.45;107981;1278;74151;-83
2022/06/25 10:55:47;;;;;;;2.10;0.80;;;;;;;27.57;42.90;100490.73;107828;1279;62773;-83
2022/06/25 10:58:18;;;;;;;1.80;0.80;;;;;;;27.72;42.08;100492.87;108022;1277;61833;-83
2022/06/25 11:00:54;;;;;;;1.30;0.70;;;;;;;27.87;43.09;100484.38;107831;1280;77037;-83
2022/06/25 11:03:27;;;;;;;5.00;0.70;;;;;;;27.92;41.96;100484.85;107816;1279;72536;-83
2022/06/25 11:05:56;;;;;;;3.30;0.80;;;;;;;27.78;42.01;100484.98;107904;1279;73765;-83
2022/06/25 11:08:32;;;;;;;2.30;0.80;;;;;;;27.74;42.47;100491.59;107992;1278;60648;-83
2022/06/25 11:10:59;;;;;;;1.40;0.50;;;;;;;27.79;42.28;100490.10;107971;1278;61764;-83
2022/06/25 11:13:27;;;;;;;1.30;0.60;;;;;;;27.91;42.06;100492.50;107910;1280;77045;-83
2022/06/25 11:15:54;;;;;;;1.90;0.50;;;;;;;28.13;41.30;100495.06;107920;1280;71446;-83
2022/06/25 11:18:21;;;;;;;3.50;0.60;;;;;;;28.33;41.90;100491.60;107549;1280;74106;-83
2022/06/25 11:20:48;;;;;;;1.10;0.60;;;;;;;28.38;41.10;100490.32;108009;1278;60766;-83
2022/06/25 11:23:15;;;;;;;1.20;0.70;;;;;;;28.35;40.22;100492.05;107999;1278;61834;-83
2022/06/25 11:28:48;;;;;;;1.20;0.70;;;;;;;28.64;40.50;100489.28;108003;1278;71434;-83
2022/06/25 11:31:16;;;;;;;2.00;0.70;;;;;;;28.89;39.87;100483.63;107841;1280;74290;-83
2022/06/25 11:33:43;;;;;;;2.30;0.80;;;;;;;28.88;40.07;100482.02;107886;1279;61964;-83
2022/06/25 11:36:11;;;;;;;0.70;0.40;;;;;;;28.88;40.46;100479.21;108028;1278;60486;-83
2022/06/25 11:38:49;;;;;;;1.90;0.50;;;;;;;28.97;39.00;100481.50;107881;1279;76578;-83
2022/06/25 11:41:33;;;;;;;2.50;0.70;;;;;;;29.17;38.76;100476.21;108023;1279;71522;-83
2022/06/25 11:44:07;;;;;;;2.00;0.60;;;;;;;29.29;38.23;100476.67;108007;1278;73448;-83
2022/06/25 11:46:35;;;;;;;1.30;0.60;;;;;;;29.21;38.25;100475.02;107910;1279;61681;-83
2022/06/25 11:49:06;;;;;;;3.50;0.80;;;;;;;29.36;38.37;100481.27;107713;1280;60688;-83
2022/06/25 11:51:32;;;;;;;2.30;0.70;;;;;;;29.59;37.76;100479.45;107992;1279;76979;-83
2022/06/25 11:54:06;;;;;;;1.20;0.60;;;;;;;29.74;36.90;100477.92;107963;1279;70243;-83
2022/06/25 11:56:33;;;;;;;1.60;0.90;;;;;;;29.90;36.53;100479.86;107999;1278;73408;-83
2022/06/25 11:59:00;;;;;;;0.90;0.40;;;;;;;29.80;36.52;100481.52;107934;1280;60667;-83
2022/06/25 12:01:29;;;;;;;1.40;0.60;;;;;;;29.55;37.00;100478.65;107915;1279;61692;-83
2022/06/25 12:03:57;;;;;;;0.90;0.50;;;;;;;29.43;36.66;100478.90;107844;1280;75670;-83
2022/06/25 12:06:24;;;;;;;1.10;0.50;;;;;;;29.32;36.70;100479.47;107460;1279;71365;-83